createdAt,value
2018-12-07T00:01:40.855Z,100743.95
2018-12-07T00:04:16.373Z,100737.19
2018-12-07T00:06:46.644Z,100733.23
2018-12-07T00:09:15.758Z,100728.66
2018-12-07T00:11:45.917Z,100724.63
2018-12-07T00:14:14.720Z,100727.69
2018-12-07T00:16:55.172Z,100732.41
2018-12-07T00:19:27.682Z,100733.81
2018-12-07T00:21:57.898Z,100729.56
2018-12-07T00:24:27.908Z,100724.98
2018-12-07T00:27:07.578Z,100721.23
2018-12-07T00:29:42.662Z,100725.75
2018-12-07T00:32:11.670Z,100723.27
2018-12-07T00:34:44.079Z,100712.48
2018-12-07T00:37:16.150Z,100709.02
2018-12-07T00:39:44.234Z,100708.94
2018-12-07T00:42:13.229Z,100702.53
2018-12-07T00:44:41.406Z,100691.31
2018-12-07T00:47:09.503Z,100694.49
2018-12-07T00:49:38.104Z,100690.55
2018-12-07T00:52:06.255Z,100686.66
2018-12-07T00:54:34.435Z,100693.23
2018-12-07T00:57:02.518Z,100684.48
2018-12-07T00:59:30.611Z,100686.66
2018-12-07T01:01:58.683Z,100691.61
2018-12-07T01:04:26.807Z,100688.88
2018-12-07T01:06:54.973Z,100687.00
2018-12-07T01:09:23.069Z,100687.13
2018-12-07T01:11:51.168Z,100689.18
2018-12-07T01:14:19.334Z,100682.69
2018-12-07T01:16:47.544Z,100684.78
2018-12-07T01:19:15.635Z,100680.84
2018-12-07T01:21:43.720Z,100675.35
2018-12-07T01:24:11.809Z,100668.69
2018-12-07T01:26:39.958Z,100667.36
2018-12-07T01:29:08.150Z,100667.98
2018-12-07T01:31:36.314Z,100656.22
2018-12-07T01:34:04.398Z,100659.52
2018-12-07T01:36:32.511Z,100656.01
2018-12-07T01:39:00.758Z,100654.88
2018-12-07T01:41:28.849Z,100657.68
2018-12-07T01:43:57.007Z,100651.61
2018-12-07T01:46:25.189Z,100647.88
2018-12-07T01:48:53.290Z,100646.95
2018-12-07T01:51:21.488Z,100646.36
2018-12-07T01:53:49.605Z,100643.77
2018-12-07T01:56:17.746Z,100647.80
2018-12-07T01:58:45.905Z,100645.27
2018-12-07T02:01:13.994Z,100639.66
2018-12-07T02:03:42.166Z,100637.91
2018-12-07T02:06:10.349Z,100636.06
2018-12-07T02:08:38.565Z,100640.16
2018-12-07T02:11:06.692Z,100632.03
2018-12-07T02:13:34.972Z,100628.22
2018-12-07T02:16:03.192Z,100625.95
2018-12-07T02:18:31.425Z,100618.92
2018-12-07T02:20:59.594Z,100611.51
2018-12-07T02:23:27.681Z,100613.71
2018-12-07T02:25:55.770Z,100608.67
2018-12-07T02:28:23.898Z,100608.26
2018-12-07T02:30:51.986Z,100602.27
2018-12-07T02:33:20.094Z,100600.52
2018-12-07T02:35:48.246Z,100592.14
2018-12-07T02:38:16.414Z,100582.66
2018-12-07T02:40:44.628Z,100584.92
2018-12-07T02:43:12.840Z,100583.08
2018-12-07T02:45:41.115Z,100586.77
2018-12-07T02:48:09.292Z,100588.23
2018-12-07T02:50:37.489Z,100587.11
2018-12-07T02:53:05.639Z,100588.65
2018-12-07T02:55:33.819Z,100583.28
2018-12-07T02:58:02.020Z,100585.22
2018-12-07T03:00:30.214Z,100586.89
2018-12-07T03:02:58.500Z,100580.94
2018-12-07T03:05:26.676Z,100571.95
2018-12-07T03:07:54.902Z,100572.02
2018-12-07T03:10:22.998Z,100565.32
2018-12-07T03:12:51.178Z,100567.70
2018-12-07T03:15:19.414Z,100576.26
2018-12-07T03:17:47.568Z,100569.97
2018-12-07T03:20:15.651Z,100573.25
2018-12-07T03:22:43.744Z,100558.50
2018-12-07T03:25:11.970Z,100563.27
2018-12-07T03:27:40.121Z,100563.70
2018-12-07T03:30:08.290Z,100562.75
2018-12-07T03:32:36.429Z,100560.67
2018-12-07T03:35:04.838Z,100553.90
2018-12-07T03:37:33.074Z,100546.78
2018-12-07T03:40:01.218Z,100545.95
2018-12-07T03:42:29.334Z,100546.27
2018-12-07T03:44:57.420Z,100533.67
2018-12-07T03:47:25.598Z,100536.78
2018-12-07T03:49:53.691Z,100543.50
2018-12-07T03:52:21.877Z,100540.08
2018-12-07T03:54:50.014Z,100535.63
2018-12-07T03:57:18.178Z,100524.28
2018-12-07T03:59:46.277Z,100526.44
2018-12-07T04:02:14.394Z,100522.94
2018-12-07T04:04:42.515Z,100520.80
2018-12-07T04:07:10.756Z,100519.36
2018-12-07T04:09:38.853Z,100518.72
2018-12-07T04:12:07.025Z,100511.61
2018-12-07T04:14:35.220Z,100521.83
2018-12-07T04:17:03.390Z,100508.63
2018-12-07T04:19:31.484Z,100508.73
2018-12-07T04:21:59.566Z,100508.73
2018-12-07T04:24:27.686Z,100505.42
2018-12-07T04:26:55.781Z,100503.56
2018-12-07T04:29:23.884Z,100493.66
2018-12-07T04:31:52.167Z,100495.52
2018-12-07T04:34:20.517Z,100489.64
2018-12-07T04:36:48.632Z,100482.11
2018-12-07T04:39:16.796Z,100483.96
2018-12-07T04:41:44.956Z,100482.62
2018-12-07T04:44:13.019Z,100476.84
2018-12-07T04:46:41.123Z,100472.91
2018-12-07T04:49:09.295Z,100477.77
2018-12-07T04:51:37.499Z,100468.48
2018-12-07T04:54:05.631Z,100471.16
2018-12-07T04:56:33.888Z,100470.44
2018-12-07T04:59:01.963Z,100464.79
2018-12-07T05:01:30.171Z,100462.20
2018-12-07T05:03:58.234Z,100457.23
2018-12-07T05:06:26.343Z,100457.83
2018-12-07T05:08:54.561Z,100453.29
2018-12-07T05:11:22.847Z,100447.11
2018-12-07T05:13:51.003Z,100448.47
2018-12-07T05:16:19.243Z,100444.92
2018-12-07T05:18:47.470Z,100441.61
2018-12-07T05:21:15.564Z,100445.02
2018-12-07T05:23:43.721Z,100441.13
2018-12-07T05:26:11.833Z,100436.50
2018-12-07T05:28:39.923Z,100437.50
2018-12-07T05:31:08.072Z,100428.41
2018-12-07T05:33:36.241Z,100422.12
2018-12-07T05:36:04.482Z,100425.23
2018-12-07T05:38:32.670Z,100426.38
2018-12-07T05:41:00.944Z,100431.34
2018-12-07T05:43:29.135Z,100425.44
2018-12-07T05:45:57.424Z,100427.70
2018-12-07T05:48:25.675Z,100420.07
2018-12-07T05:50:53.794Z,100429.80
2018-12-07T05:53:21.886Z,100428.98
2018-12-07T05:55:50.005Z,100427.63
2018-12-07T05:58:18.065Z,100426.78
2018-12-07T06:00:46.222Z,100422.03
2018-12-07T06:03:14.394Z,100426.16
2018-12-07T06:05:42.570Z,100421.75
2018-12-07T06:08:10.650Z,100419.89
2018-12-07T06:10:38.751Z,100421.22
2018-12-07T06:13:06.934Z,100423.57
2018-12-07T06:15:35.162Z,100421.84
2018-12-07T06:18:03.350Z,100421.00
2018-12-07T06:20:31.559Z,100415.73
2018-12-07T06:22:59.742Z,100413.58
2018-12-07T06:25:27.817Z,100414.53
2018-12-07T06:27:55.893Z,100411.83
2018-12-07T06:30:23.969Z,100414.10
2018-12-07T06:32:52.062Z,100410.88
2018-12-07T06:35:26.762Z,100404.91
2018-12-07T06:37:54.854Z,100409.03
2018-12-07T06:40:23.006Z,100407.70
2018-12-07T06:42:51.088Z,100407.41
2018-12-07T06:45:19.199Z,100401.83
2018-12-07T06:47:47.297Z,100407.91
2018-12-07T06:50:15.497Z,100406.26
2018-12-07T06:52:43.718Z,100404.09
2018-12-07T06:55:11.871Z,100399.66
2018-12-07T06:57:39.953Z,100408.55
2018-12-07T07:00:08.547Z,100408.83
2018-12-07T07:02:36.722Z,100403.98
2018-12-07T07:05:05.155Z,100402.13
2018-12-07T07:07:33.252Z,100398.10
2018-12-07T07:10:01.341Z,100395.62
2018-12-07T07:12:29.414Z,100405.00
2018-12-07T07:14:57.498Z,100399.69
2018-12-07T07:17:25.658Z,100403.31
2018-12-07T07:19:53.739Z,100402.84
2018-12-07T07:22:21.979Z,100402.13
2018-12-07T07:24:50.066Z,100403.56
2018-12-07T07:27:18.173Z,100399.87
2018-12-07T07:29:46.277Z,100396.66
2018-12-07T07:32:14.361Z,100388.30
2018-12-07T07:34:42.463Z,100384.19
2018-12-07T07:37:10.546Z,100389.55
2018-12-07T07:39:38.623Z,100385.32
2018-12-07T07:42:06.710Z,100378.03
2018-12-07T07:44:34.899Z,100382.83
2018-12-07T07:47:03.001Z,100371.42
2018-12-07T07:49:31.179Z,100373.78
2018-12-07T07:51:59.267Z,100369.77
2018-12-07T07:54:27.375Z,100364.61
2018-12-07T07:56:55.470Z,100358.78
2018-12-07T07:59:23.564Z,100353.19
2018-12-07T08:01:51.657Z,100356.05
2018-12-07T08:04:19.829Z,100348.44
2018-12-07T08:06:47.919Z,100343.61
2018-12-07T08:09:18.654Z,100334.86
2018-12-07T08:11:50.450Z,100328.80
2018-12-07T08:14:18.537Z,100327.48
2018-12-07T08:16:46.686Z,100317.99
2018-12-07T08:19:14.926Z,100318.55
2018-12-07T08:21:43.017Z,100317.57
2018-12-07T08:24:11.090Z,100315.27
2018-12-07T08:26:39.337Z,100319.84
2018-12-07T08:29:07.429Z,100312.64
2018-12-07T08:31:35.526Z,100311.39
2018-12-07T08:34:03.682Z,100318.19
2018-12-07T08:36:31.778Z,100310.58
2018-12-07T08:38:59.898Z,100302.59
2018-12-07T08:41:28.007Z,100300.47
2018-12-07T08:43:56.081Z,100305.02
2018-12-07T08:46:24.259Z,100296.78
2018-12-07T08:48:52.511Z,100303.17
2018-12-07T08:51:20.599Z,100294.11
2018-12-07T08:53:48.761Z,100294.75
2018-12-07T08:56:16.979Z,100283.33
2018-12-07T08:58:46.298Z,100283.45
2018-12-07T09:01:14.474Z,100286.32
2018-12-07T09:03:42.693Z,100273.75
2018-12-07T09:06:10.789Z,100275.10
2018-12-07T09:08:38.959Z,100263.17
2018-12-07T09:11:07.218Z,100274.17
2018-12-07T09:13:35.285Z,100269.95
2018-12-07T09:16:03.467Z,100274.19
2018-12-07T09:18:31.550Z,100257.70
2018-12-07T09:20:59.676Z,100252.24
2018-12-07T09:23:27.839Z,100248.73
2018-12-07T09:25:55.928Z,100245.03
2018-12-07T09:28:24.086Z,100242.97
2018-12-07T09:30:52.166Z,100241.02
2018-12-07T09:33:20.390Z,100239.36
2018-12-07T09:35:48.490Z,100245.84
2018-12-07T09:38:16.630Z,100247.29
2018-12-07T09:40:44.814Z,100245.23
2018-12-07T09:43:12.919Z,100240.91
2018-12-07T09:45:41.005Z,100237.93
2018-12-07T09:48:09.106Z,100234.31
2018-12-07T09:50:37.198Z,100230.38
2018-12-07T09:53:05.378Z,100219.47
2018-12-07T09:55:33.547Z,100218.55
2018-12-07T09:58:01.751Z,100210.08
2018-12-07T10:00:29.859Z,100198.65
2018-12-07T10:02:58.067Z,100203.90
2018-12-07T10:05:26.717Z,100196.91
2018-12-07T10:07:54.815Z,100192.79
2018-12-07T10:10:22.909Z,100187.03
2018-12-07T10:12:51.030Z,100182.39
2018-12-07T10:15:19.601Z,100174.55
2018-12-07T10:17:47.725Z,100177.00
2018-12-07T10:20:15.959Z,100171.57
2018-12-07T10:22:44.062Z,100167.02
2018-12-07T10:25:12.207Z,100167.33
2018-12-07T10:27:40.289Z,100164.62
2018-12-07T10:30:08.437Z,100151.83
2018-12-07T10:32:36.538Z,100157.19
2018-12-07T10:35:05.916Z,100152.77
2018-12-07T10:37:33.997Z,100147.08
2018-12-07T10:40:02.100Z,100146.17
2018-12-07T10:42:30.342Z,100151.03
2018-12-07T10:44:58.421Z,100134.01
2018-12-07T10:47:26.489Z,100135.97
2018-12-07T10:49:54.569Z,100137.92
2018-12-07T10:52:22.746Z,100130.82
2018-12-07T10:54:50.848Z,100133.29
2018-12-07T10:57:18.913Z,100126.69
2018-12-07T10:59:47.089Z,100118.81
2018-12-07T11:02:20.548Z,100115.13
2018-12-07T11:04:54.082Z,100115.30
2018-12-07T11:07:27.549Z,100108.33
2018-12-07T11:10:01.108Z,100092.86
2018-12-07T11:12:34.620Z,100079.46
2018-12-07T11:15:08.186Z,100089.45
2018-12-07T11:17:41.642Z,100087.73
2018-12-07T11:20:15.201Z,100079.36
2018-12-07T11:22:48.574Z,100072.78
2018-12-07T11:25:21.922Z,100066.02
2018-12-07T11:27:55.462Z,100065.35
2018-12-07T11:30:30.794Z,100059.80
2018-12-07T11:33:04.861Z,100051.88
2018-12-07T11:35:36.590Z,100037.14
2018-12-07T11:38:04.826Z,100029.64
2018-12-07T11:40:33.014Z,100032.46
2018-12-07T11:45:35.697Z,100015.89
2018-12-07T11:48:03.854Z,100003.45
2018-12-07T11:50:31.929Z,99996.97
2018-12-07T11:53:00.026Z,99982.34
2018-12-07T11:55:28.117Z,99978.48
2018-12-07T11:57:56.187Z,99972.10
2018-12-07T12:00:24.354Z,99972.77
2018-12-07T12:02:52.497Z,99960.78
2018-12-07T12:05:20.769Z,99961.82
2018-12-07T12:07:48.838Z,99952.54
2018-12-07T12:10:16.934Z,99944.25
2018-12-07T12:12:47.959Z,99932.55
2018-12-07T12:15:16.039Z,99931.68
2018-12-07T12:17:44.102Z,99928.20
2018-12-07T12:20:12.422Z,99910.37
2018-12-07T12:22:40.492Z,99911.33
2018-12-07T12:25:08.693Z,99903.16
2018-12-07T12:27:36.841Z,99895.92
2018-12-07T12:30:05.429Z,99892.25
2018-12-07T12:32:33.501Z,99881.92
2018-12-07T12:35:01.586Z,99885.33
2018-12-07T12:37:36.303Z,99873.18
2018-12-07T12:40:04.762Z,99872.70
2018-12-07T12:42:32.824Z,99854.94
2018-12-07T12:45:00.897Z,99854.72
2018-12-07T12:47:28.974Z,99838.39
2018-12-07T12:49:57.059Z,99838.49
2018-12-07T12:52:25.227Z,99826.44
2018-12-07T12:54:53.310Z,99820.13
2018-12-07T12:57:21.383Z,99821.92
2018-12-07T12:59:49.466Z,99811.02
2018-12-07T13:02:17.614Z,99801.00
2018-12-07T13:04:45.789Z,99805.91
2018-12-07T13:07:13.959Z,99798.35
2018-12-07T13:09:42.077Z,99792.23
2018-12-07T13:12:10.243Z,99781.91
2018-12-07T13:14:38.326Z,99785.41
2018-12-07T13:17:06.482Z,99759.75
2018-12-07T13:19:34.563Z,99757.65
2018-12-07T13:22:02.805Z,99758.48
2018-12-07T13:24:30.918Z,99755.08
2018-12-07T13:26:59.073Z,99738.53
2018-12-07T13:29:27.221Z,99726.30
2018-12-07T13:31:55.838Z,99728.16
2018-12-07T13:34:23.915Z,99724.05
2018-12-07T13:36:52.095Z,99718.17
2018-12-07T13:39:20.229Z,99714.16
2018-12-07T13:41:50.502Z,99712.22
2018-12-07T13:44:18.833Z,99697.27
2018-12-07T13:46:47.717Z,99693.80
2018-12-07T13:49:16.046Z,99689.70
2018-12-07T13:51:44.239Z,99682.87
2018-12-07T13:54:12.612Z,99676.27
2018-12-07T13:56:41.029Z,99663.21
2018-12-07T13:59:09.329Z,99672.02
2018-12-07T14:01:37.571Z,99659.38
2018-12-07T14:04:05.899Z,99671.65
2018-12-07T14:06:34.142Z,99662.43
2018-12-07T14:09:02.483Z,99657.86
2018-12-07T14:11:30.702Z,99653.15
2018-12-07T14:13:59.085Z,99645.72
2018-12-07T14:16:27.361Z,99636.11
2018-12-07T14:18:55.469Z,99635.89
2018-12-07T14:21:23.750Z,99638.84
2018-12-07T14:23:52.028Z,99634.41
2018-12-07T14:26:20.342Z,99629.56
2018-12-07T14:28:48.670Z,99633.49
2018-12-07T14:31:16.888Z,99621.16
2018-12-07T14:33:45.141Z,99617.92
2018-12-07T14:36:13.324Z,99619.31
2018-12-07T14:38:41.854Z,99602.55
2018-12-07T14:41:10.234Z,99602.88
2018-12-07T14:43:38.491Z,99596.56
2018-12-07T14:46:06.741Z,99597.19
2018-12-07T14:48:34.959Z,99593.73
2018-12-07T14:51:03.149Z,99606.14
2018-12-07T14:53:31.271Z,99592.62
2018-12-07T14:55:59.428Z,99590.75
2018-12-07T14:58:27.566Z,99602.97
2018-12-07T15:00:55.681Z,99597.02
2018-12-07T15:03:23.846Z,99592.17
2018-12-07T15:05:52.077Z,99589.81
2018-12-07T15:08:20.498Z,99586.28
2018-12-07T15:10:48.934Z,99593.00
2018-12-07T15:13:17.364Z,99595.31
2018-12-07T15:15:45.541Z,99579.44
2018-12-07T15:18:13.869Z,99583.86
2018-12-07T15:20:42.025Z,99579.67
2018-12-07T15:23:10.286Z,99585.12
2018-12-07T15:25:38.459Z,99584.01
2018-12-07T15:28:06.750Z,99581.02
2018-12-07T15:30:34.993Z,99582.05
2018-12-07T15:33:03.292Z,99568.13
2018-12-07T15:35:31.592Z,99569.56
2018-12-07T15:38:00.059Z,99571.59
2018-12-07T15:40:28.425Z,99576.98
2018-12-07T15:42:56.695Z,99563.92
2018-12-07T15:45:25.082Z,99552.89
2018-12-07T15:47:53.264Z,99549.22
2018-12-07T15:50:25.003Z,99553.89
2018-12-07T15:52:51.795Z,99560.16
2018-12-07T15:55:20.013Z,99548.48
2018-12-07T15:57:48.234Z,99526.12
2018-12-07T16:00:16.450Z,99531.61
2018-12-07T16:02:44.923Z,99516.84
2018-12-07T16:05:13.117Z,99506.19
2018-12-07T16:07:41.254Z,99507.89
2018-12-07T16:10:09.636Z,99486.45
2018-12-07T16:12:38.000Z,99495.86
2018-12-07T16:15:06.492Z,99489.04
2018-12-07T16:17:34.736Z,99467.87
2018-12-07T16:20:03.020Z,99465.11
2018-12-07T16:22:31.464Z,99455.61
2018-12-07T16:24:59.909Z,99451.32
2018-12-07T16:27:28.190Z,99437.06
2018-12-07T16:29:56.572Z,99426.00
2018-12-07T16:32:25.013Z,99419.83
2018-12-07T16:34:53.634Z,99406.54
2018-12-07T16:37:22.074Z,99401.81
2018-12-07T16:39:50.467Z,99408.64
2018-12-07T16:42:18.653Z,99413.77
2018-12-07T16:44:46.899Z,99410.12
2018-12-07T16:47:15.343Z,99407.50
2018-12-07T16:49:43.473Z,99399.42
2018-12-07T16:52:11.866Z,99393.19
2018-12-07T16:54:40.202Z,99393.47
2018-12-07T16:57:08.565Z,99389.84
2018-12-07T16:59:36.985Z,99371.54
2018-12-07T17:02:05.207Z,99372.95
2018-12-07T17:04:33.566Z,99368.81
2018-12-07T17:07:01.869Z,99356.92
2018-12-07T17:09:30.189Z,99353.20
2018-12-07T17:11:58.300Z,99349.50
2018-12-07T17:14:26.699Z,99343.09
2018-12-07T17:16:55.031Z,99333.59
2018-12-07T17:19:23.179Z,99325.92
2018-12-07T17:21:51.417Z,99321.68
2018-12-07T17:24:19.692Z,99323.16
2018-12-07T17:26:48.115Z,99323.26
2018-12-07T17:29:16.469Z,99313.59
2018-12-07T17:31:44.766Z,99299.99
2018-12-07T17:34:13.108Z,99300.45
2018-12-07T17:36:41.473Z,99298.20
2018-12-07T17:39:09.582Z,99303.86
2018-12-07T17:41:37.719Z,99299.17
2018-12-07T17:44:06.087Z,99293.30
2018-12-07T17:46:34.639Z,99281.81
2018-12-07T17:49:02.932Z,99287.59
2018-12-07T17:51:31.130Z,99282.75
2018-12-07T17:53:59.560Z,99284.70
2018-12-07T17:56:28.026Z,99277.70
2018-12-07T17:58:56.293Z,99266.97
2018-12-07T18:01:24.695Z,99272.45
2018-12-07T18:03:52.780Z,99266.80
2018-12-07T18:06:20.885Z,99268.96
2018-12-07T18:08:49.319Z,99259.52
2018-12-07T18:11:17.637Z,99248.23
2018-12-07T18:13:47.962Z,99247.94
2018-12-07T18:16:16.196Z,99248.75
2018-12-07T18:18:44.313Z,99244.52
2018-12-07T18:21:12.428Z,99243.10
2018-12-07T18:23:40.748Z,99232.58
2018-12-07T18:26:09.040Z,99244.16
2018-12-07T18:28:37.343Z,99230.93
2018-12-07T18:31:05.750Z,99226.25
2018-12-07T18:33:33.854Z,99225.44
2018-12-07T18:36:02.153Z,99218.67
2018-12-07T18:38:30.527Z,99216.45
2018-12-07T18:40:58.729Z,99207.98
2018-12-07T18:43:27.134Z,99200.43
2018-12-07T18:45:55.496Z,99200.35
2018-12-07T18:48:23.799Z,99189.81
2018-12-07T18:50:51.987Z,99193.23
2018-12-07T18:53:20.376Z,99188.34
2018-12-07T18:55:49.039Z,99194.41
2018-12-07T18:58:17.380Z,99181.52
2018-12-07T19:00:45.742Z,99187.20
2018-12-07T19:03:14.052Z,99183.28
2018-12-07T19:05:42.362Z,99185.67
2018-12-07T19:08:10.763Z,99177.42
2018-12-07T19:10:39.091Z,99192.20
2018-12-07T19:13:07.830Z,99187.66
2018-12-07T19:15:36.017Z,99176.98
2018-12-07T19:18:06.300Z,99186.39
2018-12-07T19:20:34.670Z,99172.29
2018-12-07T19:26:14.157Z,99172.61
2018-12-07T19:31:59.236Z,99191.75
2018-12-07T19:34:29.439Z,99186.41
2018-12-07T19:37:02.878Z,99214.91
2018-12-07T19:39:34.136Z,99229.98
2018-12-07T19:42:05.868Z,99238.87
2018-12-07T19:44:36.770Z,99242.14
2018-12-07T19:47:13.582Z,99231.30
2018-12-07T19:49:44.620Z,99262.41
2018-12-07T19:52:16.202Z,99283.16
2018-12-07T19:54:50.749Z,99298.44
2018-12-07T19:57:27.148Z,99305.12
2018-12-07T20:00:14.049Z,99306.82
2018-12-07T20:02:46.812Z,99323.41
2018-12-07T20:05:18.106Z,99340.10
2018-12-07T20:07:47.674Z,99353.70
2018-12-07T20:10:18.790Z,99366.61
2018-12-07T20:12:52.172Z,99388.38
2018-12-07T20:15:22.847Z,99402.92
2018-12-07T20:18:16.210Z,99403.42
2018-12-07T20:20:55.594Z,99416.97
2018-12-07T20:23:27.039Z,99419.71
2018-12-07T20:26:00.190Z,99426.30
2018-12-07T20:28:38.476Z,99428.05
2018-12-07T20:31:13.707Z,99434.50
2018-12-07T20:33:49.201Z,99434.34
2018-12-07T20:36:20.477Z,99422.45
2018-12-07T20:38:50.032Z,99440.45
2018-12-07T20:41:20.276Z,99454.92
2018-12-07T20:43:51.497Z,99479.84
2018-12-07T20:48:58.507Z,99497.00
2018-12-07T20:51:49.069Z,99510.37
2018-12-07T20:54:20.622Z,99524.83
2018-12-07T20:56:55.552Z,99526.00
2018-12-07T20:59:35.065Z,99529.34
2018-12-07T21:02:06.062Z,99550.88
2018-12-07T21:04:44.769Z,99570.29
2018-12-07T21:07:38.500Z,99563.52
2018-12-07T21:11:22.757Z,99571.02
2018-12-07T21:14:21.005Z,99585.30
2018-12-07T21:17:08.086Z,99590.41
2018-12-07T21:19:43.878Z,99601.91
2018-12-07T21:22:24.626Z,99622.54
2018-12-07T21:24:57.341Z,99642.55
2018-12-07T21:27:37.774Z,99642.14
2018-12-07T21:30:50.281Z,99653.55
2018-12-07T21:33:28.282Z,99668.92
2018-12-07T21:36:34.736Z,99670.14
2018-12-07T21:39:11.736Z,99672.28
2018-12-07T21:41:47.983Z,99687.33
2018-12-07T21:44:27.603Z,99695.50
2018-12-07T21:47:04.950Z,99694.83
2018-12-07T21:49:43.780Z,99712.48
2018-12-07T21:52:26.530Z,99732.05
2018-12-07T21:58:44.793Z,99737.92
2018-12-07T22:01:22.477Z,99733.56
2018-12-07T22:03:54.586Z,99738.05
2018-12-07T22:06:30.009Z,99738.97
2018-12-07T22:09:11.747Z,99739.13
2018-12-07T22:11:43.634Z,99744.95
2018-12-07T22:17:14.909Z,99756.87
2018-12-07T22:19:46.473Z,99758.13
2018-12-07T22:22:16.442Z,99763.05
2018-12-07T22:24:53.267Z,99771.17
2018-12-07T22:27:25.801Z,99777.20
2018-12-07T22:29:58.573Z,99776.64
2018-12-07T22:32:32.269Z,99772.02
2018-12-07T22:35:10.494Z,99780.30
2018-12-07T22:37:40.957Z,99785.25
2018-12-07T22:40:16.091Z,99782.33
2018-12-07T22:42:49.499Z,99800.95
2018-12-07T22:45:27.512Z,99792.48
2018-12-07T22:48:02.619Z,99792.20
2018-12-07T22:50:32.854Z,99795.64
2018-12-07T22:53:03.414Z,99790.02
2018-12-07T22:55:33.045Z,99780.83
2018-12-07T22:58:03.728Z,99779.56
2018-12-07T23:00:43.572Z,99795.00
2018-12-07T23:03:16.054Z,99802.42
2018-12-07T23:05:49.808Z,99805.28
2018-12-07T23:08:24.355Z,99809.41
2018-12-07T23:10:55.928Z,99803.95
2018-12-07T23:13:53.993Z,99817.26
2018-12-07T23:16:27.456Z,99821.81
2018-12-07T23:19:07.762Z,99827.20
2018-12-07T23:21:49.224Z,99820.34
2018-12-07T23:24:22.992Z,99826.88
2018-12-07T23:26:52.977Z,99818.72
2018-12-07T23:29:31.198Z,99827.14
2018-12-07T23:31:59.964Z,99834.72
2018-12-07T23:34:29.305Z,99835.82
2018-12-07T23:36:59.642Z,99835.32
2018-12-07T23:39:34.267Z,99831.43
2018-12-07T23:42:06.627Z,99836.89
2018-12-07T23:44:41.247Z,99845.91
2018-12-07T23:47:13.965Z,99852.16
2018-12-07T23:49:48.643Z,99857.38
2018-12-07T23:52:21.335Z,99865.52
2018-12-07T23:54:52.411Z,99864.25
2018-12-07T23:57:21.589Z,99867.95
2018-12-07T23:59:55.884Z,99865.58
